createdAt,value
2018-02-23T00:01:17.793Z,-6.3
2018-02-23T00:02:40.186Z,-6.3
2018-02-23T00:04:05.120Z,-6.3
2018-02-23T00:05:24.975Z,-6.3
2018-02-23T00:06:44.833Z,-6.3
2018-02-23T00:08:04.676Z,-6.3
2018-02-23T00:09:24.576Z,-6.4
2018-02-23T00:10:47.008Z,-6.4
2018-02-23T00:12:09.381Z,-6.5
2018-02-23T00:13:29.275Z,-6.5
2018-02-23T00:14:49.104Z,-6.5
2018-02-23T00:16:11.459Z,-6.4
2018-02-23T00:17:33.846Z,-6.4
2018-02-23T00:18:53.706Z,-6.5
2018-02-23T00:20:18.608Z,-6.4
2018-02-23T00:21:46.060Z,-6.4
2018-02-23T00:23:05.890Z,-6.3
2018-02-23T00:24:25.752Z,-6.3
2018-02-23T00:25:50.689Z,-6.3
2018-02-23T00:27:10.548Z,-6.3
2018-02-23T00:28:30.406Z,-6.4
2018-02-23T00:29:50.334Z,-6.4
2018-02-23T00:31:10.211Z,-6.5
2018-02-23T00:32:32.583Z,-6.5
2018-02-23T00:34:07.598Z,-6.5
2018-02-23T00:35:27.465Z,-6.5
2018-02-23T00:36:47.367Z,-6.5
2018-02-23T00:38:09.795Z,-6.5
2018-02-23T00:39:29.619Z,-6.6
2018-02-23T00:40:52.029Z,-6.6
2018-02-23T00:42:11.849Z,-6.5
2018-02-23T00:43:31.675Z,-6.5
2018-02-23T00:44:54.025Z,-6.5
2018-02-23T00:46:18.940Z,-6.5
2018-02-23T00:47:38.765Z,-6.6
2018-02-23T00:49:01.184Z,-6.6
2018-02-23T00:50:26.080Z,-6.6
2018-02-23T00:51:48.466Z,-6.6
2018-02-23T00:53:08.358Z,-6.6
2018-02-23T00:54:28.183Z,-6.6
2018-02-23T00:55:48.012Z,-6.6
2018-02-23T00:57:12.936Z,-6.7
2018-02-23T00:58:32.781Z,-6.7
2018-02-23T00:59:52.615Z,-6.8
2018-02-23T01:01:12.443Z,-6.7
2018-02-23T01:02:32.288Z,-6.7
2018-02-23T01:03:54.658Z,-6.7
2018-02-23T01:05:14.562Z,-6.7
2018-02-23T01:06:34.462Z,-6.7
2018-02-23T01:07:56.872Z,-6.7
2018-02-23T01:09:16.688Z,-6.7
2018-02-23T01:10:39.041Z,-6.7
2018-02-23T01:12:01.442Z,-6.7
2018-02-23T01:13:26.349Z,-6.8
2018-02-23T01:14:48.699Z,-6.8
2018-02-23T01:16:08.539Z,-6.9
2018-02-23T01:17:28.443Z,-6.8
2018-02-23T01:18:50.828Z,-6.9
2018-02-23T01:20:13.194Z,-6.8
2018-02-23T01:21:33.031Z,-6.9
2018-02-23T01:22:52.870Z,-6.8
2018-02-23T01:24:15.262Z,-6.9
2018-02-23T01:25:37.617Z,-7
2018-02-23T01:26:57.451Z,-7
2018-02-23T01:28:19.853Z,-7
2018-02-23T01:29:42.224Z,-7
2018-02-23T01:31:02.100Z,-7
2018-02-23T01:32:21.961Z,-7
2018-02-23T01:33:41.812Z,-7
2018-02-23T01:35:01.656Z,-7
2018-02-23T01:36:21.481Z,-7
2018-02-23T01:37:41.339Z,-7
2018-02-23T01:39:01.177Z,-7.1
2018-02-23T01:40:21.008Z,-7
2018-02-23T01:41:40.866Z,-7.1
2018-02-23T01:43:05.780Z,-7.3
2018-02-23T01:44:28.130Z,-7.2
2018-02-23T01:45:47.948Z,-7.2
2018-02-23T01:47:07.781Z,-7.1
2018-02-23T01:48:27.618Z,-7.1
2018-02-23T01:49:47.478Z,-7.2
2018-02-23T01:51:09.921Z,-7.2
2018-02-23T01:52:32.295Z,-7.2
2018-02-23T01:53:52.117Z,-7.2
2018-02-23T01:55:11.986Z,-7.1
2018-02-23T01:56:31.829Z,-7
2018-02-23T01:57:54.187Z,-7
2018-02-23T01:59:14.008Z,-7
2018-02-23T02:00:43.961Z,-7.1
2018-02-23T02:02:03.855Z,-7.2
2018-02-23T02:03:23.676Z,-7.2
2018-02-23T02:04:48.584Z,-7.2
2018-02-23T02:06:16.016Z,-7.2
2018-02-23T02:07:38.385Z,-7.2
2018-02-23T02:09:00.764Z,-7.3
2018-02-23T02:10:35.775Z,-7.3
2018-02-23T02:12:03.181Z,-7.3
2018-02-23T02:13:25.579Z,-7.4
2018-02-23T02:14:45.495Z,-7.4
2018-02-23T02:16:07.912Z,-7.3
2018-02-23T02:17:27.746Z,-7.4
2018-02-23T02:18:47.639Z,-7.5
2018-02-23T02:20:07.490Z,-7.6
2018-02-23T02:21:29.938Z,-7.7
2018-02-23T02:22:52.362Z,-7.8
2018-02-23T02:24:14.803Z,-7.8
2018-02-23T02:25:34.669Z,-7.7
2018-02-23T02:26:57.057Z,-7.7
2018-02-23T02:28:16.880Z,-7.6
2018-02-23T02:29:36.790Z,-7.6
2018-02-23T02:30:56.642Z,-7.6
2018-02-23T02:32:16.466Z,-7.7
2018-02-23T02:33:36.350Z,-7.7
2018-02-23T02:34:58.733Z,-7.7
2018-02-23T02:36:23.668Z,-7.8
2018-02-23T02:37:43.519Z,-7.8
2018-02-23T02:39:18.542Z,-7.9
2018-02-23T02:40:40.909Z,-7.9
2018-02-23T02:42:00.767Z,-8
2018-02-23T02:43:28.185Z,-8.1
2018-02-23T02:44:58.154Z,-8.2
2018-02-23T02:46:20.552Z,-8.2
2018-02-23T02:47:48.020Z,-8.3
2018-02-23T02:49:10.467Z,-8.4
2018-02-23T02:50:40.521Z,-8.4
2018-02-23T02:52:00.470Z,-8.4
2018-02-23T02:53:20.396Z,-8.4
2018-02-23T02:54:40.248Z,-8.4
2018-02-23T02:56:00.136Z,-8.4
2018-02-23T02:57:22.494Z,-8.4
2018-02-23T02:58:42.345Z,-8.4
2018-02-23T03:00:04.737Z,-8.5
2018-02-23T03:01:27.095Z,-8.6
2018-02-23T03:02:49.471Z,-8.6
2018-02-23T03:04:09.349Z,-8.7
2018-02-23T03:05:31.750Z,-8.7
2018-02-23T03:06:51.583Z,-8.7
2018-02-23T03:08:13.983Z,-8.7
2018-02-23T03:09:33.809Z,-8.7
2018-02-23T03:10:56.226Z,-8.7
2018-02-23T03:12:21.174Z,-8.7
2018-02-23T03:13:43.585Z,-8.7
2018-02-23T03:15:05.932Z,-8.7
2018-02-23T03:16:28.294Z,-8.7
2018-02-23T03:17:50.676Z,-8.8
2018-02-23T03:19:13.068Z,-8.7
2018-02-23T03:20:32.914Z,-8.7
2018-02-23T03:21:52.731Z,-8.7
2018-02-23T03:23:22.694Z,-8.7
2018-02-23T03:24:42.551Z,-8.7
2018-02-23T03:26:02.378Z,-8.7
2018-02-23T03:27:24.819Z,-8.7
2018-02-23T03:28:44.658Z,-8.8
2018-02-23T03:30:12.132Z,-8.8
2018-02-23T03:31:39.602Z,-8.6
2018-02-23T03:32:59.485Z,-8.5
2018-02-23T03:34:19.358Z,-8.4
2018-02-23T03:35:39.246Z,-8.4
2018-02-23T03:36:59.105Z,-8.3
2018-02-23T03:38:18.925Z,-8.3
2018-02-23T03:39:38.770Z,-8.2
2018-02-23T03:40:58.648Z,-8.3
2018-02-23T03:42:18.519Z,-8.3
2018-02-23T03:43:38.342Z,-8.2
2018-02-23T03:45:00.721Z,-8.1
2018-02-23T03:46:20.585Z,-8.2
2018-02-23T03:47:40.450Z,-8.1
2018-02-23T03:49:00.367Z,-8.1
2018-02-23T03:50:22.748Z,-8.2
2018-02-23T03:51:45.161Z,-8.2
2018-02-23T03:53:10.062Z,-8.2
2018-02-23T03:54:29.943Z,-8.3
2018-02-23T03:55:49.847Z,-8.3
2018-02-23T03:57:09.706Z,-8.4
2018-02-23T03:58:29.534Z,-8.3
2018-02-23T03:59:49.408Z,-8.4
2018-02-23T04:01:11.774Z,-8.4
2018-02-23T04:02:31.614Z,-8.3
2018-02-23T04:03:53.982Z,-8.3
2018-02-23T04:05:16.424Z,-8.3
2018-02-23T04:06:36.252Z,-8.3
2018-02-23T04:07:58.613Z,-8.3
2018-02-23T04:09:18.454Z,-8.3
2018-02-23T04:10:43.370Z,-8.3
2018-02-23T04:12:03.219Z,-8.4
2018-02-23T04:13:23.058Z,-8.4
2018-02-23T04:14:42.937Z,-8.4
2018-02-23T04:16:02.768Z,-8.4
2018-02-23T04:17:22.595Z,-8.4
2018-02-23T04:18:42.478Z,-8.4
2018-02-23T04:20:04.908Z,-8.4
2018-02-23T04:21:24.788Z,-8.4
2018-02-23T04:22:44.681Z,-8.4
2018-02-23T04:24:07.065Z,-8.3
2018-02-23T04:25:26.887Z,-8.3
2018-02-23T04:26:51.817Z,-8.3
2018-02-23T04:28:11.701Z,-8.3
2018-02-23T04:29:31.546Z,-8.3
2018-02-23T04:30:51.366Z,-8.3
2018-02-23T04:32:13.739Z,-8.3
2018-02-23T04:33:33.567Z,-8.3
2018-02-23T04:34:53.393Z,-8.3
2018-02-23T04:36:13.255Z,-8.3
2018-02-23T04:37:33.075Z,-8.4
2018-02-23T04:39:00.563Z,-8.4
2018-02-23T04:40:22.959Z,-8.4
2018-02-23T04:41:45.405Z,-8.4
2018-02-23T04:43:28.022Z,-8.4
2018-02-23T04:44:47.840Z,-8.4
2018-02-23T04:46:07.708Z,-8.4
2018-02-23T04:47:37.708Z,-8.4
2018-02-23T04:48:57.540Z,-8.4
2018-02-23T04:50:22.484Z,-8.4
2018-02-23T04:51:44.929Z,-8.4
2018-02-23T04:53:04.777Z,-8.4
2018-02-23T04:54:24.622Z,-8.4
2018-02-23T04:55:44.527Z,-8.5
2018-02-23T04:57:06.941Z,-8.4
2018-02-23T04:58:26.778Z,-8.4
2018-02-23T04:59:46.619Z,-8.4
2018-02-23T05:01:16.590Z,-8.5
2018-02-23T05:02:36.429Z,-8.7
2018-02-23T05:03:56.268Z,-8.8
2018-02-23T05:05:16.088Z,-8.8
2018-02-23T05:06:35.910Z,-8.9
2018-02-23T05:07:55.754Z,-8.9
2018-02-23T05:09:18.099Z,-9
2018-02-23T05:10:40.501Z,-9
2018-02-23T05:12:02.906Z,-9.1
2018-02-23T05:13:22.738Z,-9.1
2018-02-23T05:14:50.198Z,-9.1
2018-02-23T05:16:12.554Z,-9.1
2018-02-23T05:17:34.972Z,-9.1
2018-02-23T05:18:57.410Z,-9.1
2018-02-23T05:20:17.222Z,-9.1
2018-02-23T05:21:37.038Z,-9.1
2018-02-23T05:22:56.898Z,-9.1
2018-02-23T05:24:21.824Z,-9.1
2018-02-23T05:25:46.711Z,-9.2
2018-02-23T05:27:06.551Z,-9.2
2018-02-23T05:28:28.920Z,-9.2
2018-02-23T05:29:48.775Z,-9.2
2018-02-23T05:31:21.333Z,-9.1
2018-02-23T05:32:51.302Z,-9.2
2018-02-23T05:34:16.228Z,-9.3
2018-02-23T05:35:36.070Z,-9.2
2018-02-23T05:36:58.442Z,-9.3
2018-02-23T05:38:41.033Z,-9.3
2018-02-23T05:40:03.424Z,-9.2
2018-02-23T05:41:25.796Z,-9.3
2018-02-23T05:42:50.701Z,-9.3
2018-02-23T05:44:15.606Z,-9.3
2018-02-23T05:45:37.952Z,-9.3
2018-02-23T05:47:00.417Z,-9.3
2018-02-23T05:48:22.807Z,-9.3
2018-02-23T05:49:47.700Z,-9.3
2018-02-23T05:51:20.214Z,-9.4
2018-02-23T05:52:42.574Z,-9.4
2018-02-23T05:54:04.964Z,-9.4
2018-02-23T05:55:24.839Z,-9.4
2018-02-23T05:56:47.198Z,-9.4
2018-02-23T05:58:09.613Z,-9.5
2018-02-23T05:59:29.481Z,-9.6
2018-02-23T06:00:49.354Z,-9.7
2018-02-23T06:02:09.195Z,-9.6
2018-02-23T06:03:31.557Z,-9.5
2018-02-23T06:04:51.422Z,-9.6
2018-02-23T06:06:11.255Z,-9.6
2018-02-23T06:07:33.625Z,-9.7
2018-02-23T06:08:56.006Z,-9.7
2018-02-23T06:10:15.831Z,-9.7
2018-02-23T06:11:38.214Z,-9.8
2018-02-23T06:12:58.051Z,-9.8
2018-02-23T06:14:20.484Z,-9.8
2018-02-23T06:15:40.391Z,-9.8
2018-02-23T06:17:05.308Z,-9.9
2018-02-23T06:18:25.184Z,-9.9
2018-02-23T06:19:45.057Z,-9.8
2018-02-23T06:21:15.067Z,-9.8
2018-02-23T06:22:40.050Z,-9.8
2018-02-23T06:23:59.916Z,-9.8
2018-02-23T06:25:19.765Z,-9.8
2018-02-23T06:26:39.603Z,-9.8
2018-02-23T06:28:04.530Z,-9.7
2018-02-23T06:29:29.462Z,-9.7
2018-02-23T06:30:49.288Z,-9.6
2018-02-23T06:32:09.162Z,-9.6
2018-02-23T06:33:28.997Z,-9.5
2018-02-23T06:34:51.367Z,-9.4
2018-02-23T06:36:11.226Z,-9.4
2018-02-23T06:37:36.131Z,-9.4
2018-02-23T06:38:58.506Z,-9.3
2018-02-23T06:40:20.887Z,-9.3
2018-02-23T06:41:40.729Z,-9.2
2018-02-23T06:43:03.147Z,-9.1
2018-02-23T06:44:22.972Z,-9.1
2018-02-23T06:45:42.789Z,-9.1
2018-02-23T06:47:02.634Z,-9.1
2018-02-23T06:48:30.092Z,-9.1
2018-02-23T06:49:52.460Z,-9
2018-02-23T06:51:22.444Z,-9
2018-02-23T06:52:42.298Z,-8.9
2018-02-23T06:54:02.149Z,-8.9
2018-02-23T06:55:21.986Z,-8.8
2018-02-23T06:56:41.878Z,-8.8
2018-02-23T06:58:01.729Z,-8.7
2018-02-23T06:59:21.613Z,-8.5
2018-02-23T07:00:44.009Z,-8.5
2018-02-23T07:02:13.989Z,-8.4
2018-02-23T07:03:36.406Z,-8.4
2018-02-23T07:04:56.230Z,-8.4
2018-02-23T07:06:16.068Z,-8.3
2018-02-23T07:07:35.895Z,-8.2
2018-02-23T07:08:55.760Z,-8.1
2018-02-23T07:10:15.606Z,-7.9
2018-02-23T07:11:37.967Z,-7.8
2018-02-23T07:12:57.794Z,-7.7
2018-02-23T07:14:25.306Z,-7.6
2018-02-23T07:15:47.674Z,-7.6
2018-02-23T07:17:07.553Z,-7.5
2018-02-23T07:18:27.377Z,-7.4
2018-02-23T07:19:47.250Z,-7.4
2018-02-23T07:21:07.079Z,-7.3
2018-02-23T07:22:26.896Z,-7.2
2018-02-23T07:23:54.326Z,-7.1
2018-02-23T07:25:21.734Z,-7
2018-02-23T07:26:41.613Z,-7
2018-02-23T07:28:01.459Z,-6.8
2018-02-23T07:29:28.879Z,-6.7
2018-02-23T07:30:48.741Z,-6.4
2018-02-23T07:32:11.113Z,-6.2
2018-02-23T07:33:33.475Z,-6.1
2018-02-23T07:34:55.878Z,-6
2018-02-23T07:36:23.326Z,-5.9
2018-02-23T07:37:45.695Z,-5.8
2018-02-23T07:39:05.563Z,-5.7
2018-02-23T07:40:27.910Z,-5.5
2018-02-23T07:41:47.776Z,-5.3
2018-02-23T07:43:07.595Z,-5.3
2018-02-23T07:44:27.427Z,-5.4
2018-02-23T07:45:47.301Z,-5.5
2018-02-23T07:47:22.318Z,-5.5
2018-02-23T07:48:47.205Z,-5.7
2018-02-23T07:50:07.044Z,-5.7
2018-02-23T07:51:31.947Z,-5.7
2018-02-23T07:52:51.802Z,-5.7
2018-02-23T07:54:34.449Z,-5.7
2018-02-23T07:56:04.408Z,-5.7
2018-02-23T07:57:26.772Z,-5.5
2018-02-23T07:58:49.153Z,-5.5
2018-02-23T08:00:08.986Z,-5.7
2018-02-23T08:01:31.355Z,-5.7
2018-02-23T08:02:53.711Z,-5.6
2018-02-23T08:04:13.548Z,-5.5
2018-02-23T08:05:38.456Z,-5.5
2018-02-23T08:06:58.271Z,-5.5
2018-02-23T08:08:18.104Z,-5.6
2018-02-23T08:09:37.953Z,-5.5
2018-02-23T08:10:57.775Z,-5.4
2018-02-23T08:12:20.221Z,-5.3
2018-02-23T08:13:40.065Z,-5.2
2018-02-23T08:14:59.943Z,-5.2
2018-02-23T08:16:19.796Z,-5.3
2018-02-23T08:17:47.239Z,-5.2
2018-02-23T08:19:09.615Z,-5.2
2018-02-23T08:20:29.496Z,-5
2018-02-23T08:21:56.983Z,-4.8
2018-02-23T08:23:16.820Z,-4.6
2018-02-23T08:24:44.250Z,-4.3
2018-02-23T08:26:04.096Z,-4.1
2018-02-23T08:27:23.979Z,-4.1
2018-02-23T08:28:51.389Z,-4
2018-02-23T08:30:21.369Z,-4
2018-02-23T08:31:41.204Z,-4.2
2018-02-23T08:33:06.108Z,-4.2
2018-02-23T08:34:25.979Z,-4
2018-02-23T08:35:45.869Z,-3.9
2018-02-23T08:37:05.726Z,-3.7
2018-02-23T08:38:25.630Z,-3.6
2018-02-23T08:39:45.483Z,-3.5
2018-02-23T08:41:05.380Z,-3.5
2018-02-23T08:42:30.354Z,-3.4
2018-02-23T08:43:50.214Z,-3.3
2018-02-23T08:45:10.070Z,-3.2
2018-02-23T08:46:29.925Z,-3
2018-02-23T08:47:49.837Z,-2.7
2018-02-23T08:49:09.681Z,-2.6
2018-02-23T08:50:39.635Z,-2.7
2018-02-23T08:51:59.491Z,-2.7
2018-02-23T08:53:21.910Z,-2.6
2018-02-23T08:54:46.807Z,-2.6
2018-02-23T08:56:09.168Z,-2.4
2018-02-23T08:57:31.602Z,-2.3
2018-02-23T08:58:51.441Z,-2.2
2018-02-23T09:00:13.798Z,-2.1
2018-02-23T09:01:33.632Z,-2
2018-02-23T09:02:53.479Z,-1.8
2018-02-23T09:04:13.382Z,-2
2018-02-23T09:05:33.201Z,-2.2
2018-02-23T09:06:53.042Z,-2.2
2018-02-23T09:08:15.429Z,-2
2018-02-23T09:09:35.314Z,-2
2018-02-23T09:10:55.218Z,-2
2018-02-23T09:12:15.092Z,-2.1
2018-02-23T09:13:37.479Z,-2
2018-02-23T09:14:57.362Z,-1.9
2018-02-23T09:16:17.193Z,-2
2018-02-23T09:17:44.607Z,-2
2018-02-23T09:19:06.995Z,-1.9
2018-02-23T09:20:29.355Z,-1.9
2018-02-23T09:21:54.258Z,-2
2018-02-23T09:23:14.150Z,-2
2018-02-23T09:24:34.003Z,-2
2018-02-23T09:25:53.838Z,-1.8
2018-02-23T09:27:31.370Z,-2
2018-02-23T09:28:58.816Z,-2
2018-02-23T09:30:31.311Z,-2.4
2018-02-23T09:31:51.206Z,-2.5
2018-02-23T09:33:16.147Z,-2.2
2018-02-23T09:34:36.034Z,-2.2
2018-02-23T09:35:55.853Z,-2
2018-02-23T09:37:15.697Z,-2
2018-02-23T09:38:35.568Z,-2.2
2018-02-23T09:40:02.998Z,-2.2
2018-02-23T09:41:38.096Z,-2
2018-02-23T09:42:57.926Z,-1.9
2018-02-23T09:44:17.755Z,-1.9
2018-02-23T09:45:37.595Z,-1.8
2018-02-23T09:46:57.414Z,-1.9
2018-02-23T09:48:17.263Z,-2
2018-02-23T09:49:37.094Z,-2.3
2018-02-23T09:51:04.518Z,-2.2
2018-02-23T09:52:26.940Z,-2.2
2018-02-23T09:53:46.803Z,-2.3
2018-02-23T09:55:06.645Z,-2.3
2018-02-23T09:56:29.011Z,-2.2
2018-02-23T09:57:48.844Z,-2.3
2018-02-23T09:59:08.682Z,-2.3
2018-02-23T10:00:28.541Z,-2.3
2018-02-23T10:01:50.967Z,-2.1
2018-02-23T10:03:10.804Z,-2
2018-02-23T10:04:33.168Z,-2
2018-02-23T10:05:53.054Z,-2.1
2018-02-23T10:07:12.938Z,-2.1
2018-02-23T10:08:32.762Z,-2.1
2018-02-23T10:10:00.204Z,-2.1
2018-02-23T10:11:20.060Z,-2.1
2018-02-23T10:12:39.927Z,-2.1
2018-02-23T10:13:59.778Z,-1.8
2018-02-23T10:15:27.232Z,-1.8
2018-02-23T10:16:49.645Z,-2
2018-02-23T10:18:14.568Z,-2
2018-02-23T10:19:36.998Z,-2
2018-02-23T10:20:59.353Z,-2
2018-02-23T10:22:24.241Z,-2
2018-02-23T10:23:46.627Z,-1.8
2018-02-23T10:25:11.507Z,-1.9
2018-02-23T10:26:33.916Z,-1.8
2018-02-23T10:27:53.782Z,-1.8
2018-02-23T10:29:13.606Z,-1.9
2018-02-23T10:30:33.459Z,-2
2018-02-23T10:32:00.884Z,-2
2018-02-23T10:33:20.764Z,-1.8
2018-02-23T10:34:40.687Z,-1.7
2018-02-23T10:36:00.582Z,-1.6
2018-02-23T10:37:22.968Z,-1.7
2018-02-23T10:38:42.808Z,-1.8
2018-02-23T10:40:05.234Z,-2
2018-02-23T10:41:32.639Z,-2
2018-02-23T10:42:57.536Z,-2.1
2018-02-23T10:44:19.957Z,-2
2018-02-23T10:45:39.833Z,-2.1
2018-02-23T10:46:59.674Z,-2
2018-02-23T10:48:24.662Z,-1.9
2018-02-23T10:49:44.497Z,-1.8
2018-02-23T10:51:09.425Z,-2
2018-02-23T10:52:31.786Z,-2
2018-02-23T10:53:54.194Z,-2
2018-02-23T10:55:14.027Z,-2
2018-02-23T10:56:33.905Z,-2.1
2018-02-23T10:57:58.803Z,-2.1
2018-02-23T10:59:18.624Z,-2.1
2018-02-23T11:00:48.635Z,-2
2018-02-23T11:02:08.461Z,-2
2018-02-23T11:03:33.362Z,-2
2018-02-23T11:04:58.324Z,-1.9
2018-02-23T11:06:18.183Z,-1.9
2018-02-23T11:07:38.008Z,-1.9
2018-02-23T11:09:00.408Z,-1.9
2018-02-23T11:10:20.276Z,-1.9
2018-02-23T11:11:42.632Z,-2
2018-02-23T11:13:05.019Z,-2
2018-02-23T11:14:24.896Z,-2
2018-02-23T11:15:47.270Z,-1.9
2018-02-23T11:17:12.227Z,-1.8
2018-02-23T11:18:32.159Z,-1.6
2018-02-23T11:19:54.506Z,-1.6
2018-02-23T11:21:24.511Z,-1.6
2018-02-23T11:22:46.929Z,-1.5
2018-02-23T11:24:09.282Z,-1.3
2018-02-23T11:25:31.666Z,-1.3
2018-02-23T11:27:01.610Z,-1.4
2018-02-23T11:28:21.432Z,-1.5
2018-02-23T11:29:43.804Z,-1.4
2018-02-23T11:31:03.631Z,-1.3
2018-02-23T11:32:23.487Z,-1.3
2018-02-23T11:33:43.355Z,-1.2
2018-02-23T11:35:10.843Z,-1.2
2018-02-23T11:36:35.757Z,-1.2
2018-02-23T11:37:55.635Z,-1.2
2018-02-23T11:39:35.780Z,-1.2
2018-02-23T11:40:55.695Z,-1.2
2018-02-23T11:42:15.591Z,-1.1
2018-02-23T11:43:35.510Z,-1.1
2018-02-23T11:45:00.450Z,-1
2018-02-23T11:46:27.923Z,-1
2018-02-23T11:47:47.780Z,-1.1
2018-02-23T11:49:12.731Z,-1
2018-02-23T11:50:35.111Z,-1
2018-02-23T11:51:55.002Z,-1.1
2018-02-23T11:53:14.851Z,-1.1
2018-02-23T11:54:37.216Z,-1
2018-02-23T11:56:02.093Z,-1
2018-02-23T11:57:34.554Z,-1
2018-02-23T11:58:54.443Z,-0.9
2018-02-23T12:00:16.815Z,-0.7
2018-02-23T12:01:54.364Z,-0.8
2018-02-23T12:03:14.199Z,-0.8
2018-02-23T12:04:34.032Z,-0.7
2018-02-23T12:05:56.470Z,-0.7
2018-02-23T12:07:16.358Z,-0.8
2018-02-23T12:08:38.733Z,-0.6
2018-02-23T12:09:58.590Z,-0.5
2018-02-23T12:11:18.443Z,-0.5
2018-02-23T12:12:38.282Z,-0.5
2018-02-23T12:13:58.148Z,-0.6
2018-02-23T12:15:17.996Z,-0.5
2018-02-23T12:16:37.863Z,-0.5
2018-02-23T12:18:00.288Z,-0.5
2018-02-23T12:19:20.167Z,-0.5
2018-02-23T12:20:45.080Z,-0.4
2018-02-23T12:22:04.958Z,-0.5
2018-02-23T12:23:27.349Z,-0.5
2018-02-23T12:24:47.174Z,-0.6
2018-02-23T12:26:07.012Z,-0.6
2018-02-23T12:27:29.389Z,-0.5
2018-02-23T12:28:49.223Z,-0.4
2018-02-23T12:30:09.094Z,-0.4
2018-02-23T12:31:28.914Z,-0.4
2018-02-23T12:32:48.793Z,-0.5
2018-02-23T12:34:08.633Z,-0.5
2018-02-23T12:35:28.571Z,-0.2
2018-02-23T12:36:50.921Z,0
2018-02-23T12:38:10.774Z,0
2018-02-23T12:39:33.117Z,0
2018-02-23T12:40:58.018Z,0.1
2018-02-23T12:42:20.428Z,1.2
2018-02-23T12:43:47.824Z,4.6
2018-02-23T12:45:07.655Z,7.6
2018-02-23T12:46:30.024Z,9.9
2018-02-23T12:47:54.992Z,11.3
2018-02-23T12:49:14.859Z,11.7
2018-02-23T12:50:37.228Z,12.3
2018-02-23T12:51:57.051Z,13
2018-02-23T12:53:19.416Z,13.8
2018-02-23T12:54:39.273Z,13.4
2018-02-23T12:55:59.144Z,14.3
2018-02-23T12:57:24.047Z,13.4
2018-02-23T12:58:43.890Z,14.3
2018-02-23T13:00:06.299Z,14.8
2018-02-23T13:01:28.717Z,14.7
2018-02-23T13:02:48.550Z,15.8
2018-02-23T13:04:08.427Z,16
2018-02-23T13:05:35.844Z,16.2
2018-02-23T13:07:00.782Z,16.2
2018-02-23T13:08:23.138Z,16.6
2018-02-23T13:09:43.025Z,17.2
2018-02-23T13:11:05.436Z,15.8
2018-02-23T13:12:25.292Z,16.8
2018-02-23T13:13:45.157Z,16.8
2018-02-23T13:15:07.533Z,17.1
2018-02-23T13:16:27.424Z,16.6
2018-02-23T13:17:59.931Z,16.3
2018-02-23T13:19:19.772Z,16.1
2018-02-23T13:20:44.739Z,16.5
2018-02-23T13:22:04.604Z,16.6
2018-02-23T13:23:29.540Z,18.1
2018-02-23T13:24:49.413Z,18.4
2018-02-23T13:26:09.247Z,17.7
2018-02-23T13:27:29.086Z,18.7
2018-02-23T13:28:48.907Z,18.2
2018-02-23T13:30:11.260Z,17.6
2018-02-23T13:31:31.134Z,16.4
2018-02-23T13:32:56.040Z,16.5
2018-02-23T13:34:18.410Z,17.1
2018-02-23T13:35:40.839Z,16.9
2018-02-23T13:37:00.683Z,16
2018-02-23T13:38:30.736Z,16.7
2018-02-23T13:39:53.103Z,16.9
2018-02-23T13:41:17.994Z,16.8
2018-02-23T13:42:42.900Z,17.4
2018-02-23T13:44:05.589Z,17.6
2018-02-23T13:45:25.444Z,18
2018-02-23T13:46:45.294Z,18.4
2018-02-23T13:48:12.746Z,19
2018-02-23T13:49:42.703Z,19.4
2018-02-23T13:51:07.582Z,18.5
2018-02-23T13:52:35.025Z,18.5
2018-02-23T13:54:04.999Z,19.6
2018-02-23T13:55:24.875Z,19.3
2018-02-23T13:56:47.276Z,19.6
2018-02-23T13:58:09.619Z,19.1
2018-02-23T13:59:29.514Z,17.2
2018-02-23T14:01:12.176Z,18.4
2018-02-23T14:02:32.006Z,19.6
2018-02-23T14:03:54.405Z,18.7
2018-02-23T14:05:14.223Z,18.4
2018-02-23T14:06:44.231Z,15
2018-02-23T14:08:04.067Z,10.6
2018-02-23T14:09:29.009Z,6.9
2018-02-23T14:10:48.876Z,5
2018-02-23T14:12:11.226Z,3.8
2018-02-23T14:13:31.035Z,3
2018-02-23T14:14:53.417Z,2.4
2018-02-23T14:16:15.756Z,1.8
2018-02-23T14:17:35.804Z,1.7
2018-02-23T14:19:10.804Z,1
2018-02-23T14:20:35.679Z,1
2018-02-23T14:22:13.240Z,1.1
2018-02-23T14:23:33.065Z,1.1
2018-02-23T14:24:52.887Z,0.9
2018-02-23T14:26:12.756Z,0.7
2018-02-23T14:27:37.634Z,0.7
2018-02-23T14:28:57.447Z,0.5
2018-02-23T14:30:17.281Z,0.4
2018-02-23T14:31:37.115Z,0.4
2018-02-23T14:33:01.992Z,0.4
2018-02-23T14:34:21.836Z,0.4
2018-02-23T14:35:44.197Z,0.1
2018-02-23T14:37:11.604Z,0
2018-02-23T14:38:33.950Z,0
2018-02-23T14:39:53.844Z,0
2018-02-23T14:41:13.663Z,-0.2
2018-02-23T14:42:48.688Z,-0.1
2018-02-23T14:44:08.504Z,-0.1
2018-02-23T14:45:30.902Z,-0.3
2018-02-23T14:47:03.417Z,-0.4
2018-02-23T14:48:25.763Z,-0.4
2018-02-23T14:49:48.167Z,-0.4
2018-02-23T14:51:13.090Z,-0.5
2018-02-23T14:52:38.024Z,-0.6
2018-02-23T14:53:57.836Z,-0.6
2018-02-23T14:55:20.220Z,-0.6
2018-02-23T14:56:40.103Z,-0.6
2018-02-23T14:57:59.949Z,-0.7
2018-02-23T14:59:19.821Z,-0.8
2018-02-23T15:00:39.656Z,-0.8
2018-02-23T15:01:59.528Z,-1
2018-02-23T15:03:19.403Z,-1
2018-02-23T15:04:49.340Z,-1.1
2018-02-23T15:06:11.705Z,-1.1
2018-02-23T15:07:31.598Z,-1.1
2018-02-23T15:08:51.458Z,-1.2
2018-02-23T15:10:31.536Z,-1.2
2018-02-23T15:11:53.896Z,-1.2
2018-02-23T15:13:18.788Z,-1.3
2018-02-23T15:14:46.264Z,-1.4
2018-02-23T15:16:08.626Z,-1.4
2018-02-23T15:17:28.506Z,-1.4
2018-02-23T15:18:53.425Z,-1.4
2018-02-23T15:20:13.259Z,-1.4
2018-02-23T15:21:33.084Z,-1.4
2018-02-23T15:23:00.526Z,-1.3
2018-02-23T15:24:20.403Z,-1.4
2018-02-23T15:25:40.296Z,-1.5
2018-02-23T15:27:00.177Z,-1.6
2018-02-23T15:28:20.043Z,-1.7
2018-02-23T15:29:39.973Z,-1.8
2018-02-23T15:30:59.819Z,-1.8
2018-02-23T15:32:19.663Z,-1.7
2018-02-23T15:33:42.044Z,-1.8
2018-02-23T15:35:04.447Z,-1.9
2018-02-23T15:36:26.867Z,-2
2018-02-23T15:37:49.245Z,-2
2018-02-23T15:39:09.133Z,-2
2018-02-23T15:40:31.518Z,-2.1
2018-02-23T15:41:51.365Z,-2.1
2018-02-23T15:43:26.410Z,-2.1
2018-02-23T15:44:48.894Z,-2.1
2018-02-23T15:46:08.766Z,-2.1
2018-02-23T15:47:31.184Z,-2.2
2018-02-23T15:48:53.579Z,-2.3
2018-02-23T15:50:13.409Z,-2.3
2018-02-23T15:51:38.310Z,-2.4
2018-02-23T15:53:00.732Z,-2.4
2018-02-23T15:54:28.145Z,-2.4
2018-02-23T15:55:47.985Z,-2.5
2018-02-23T15:57:07.854Z,-2.6
2018-02-23T15:58:27.695Z,-2.7
2018-02-23T15:59:55.166Z,-2.7
2018-02-23T16:01:15.013Z,-2.8
2018-02-23T16:02:34.937Z,-2.8
2018-02-23T16:03:54.796Z,-2.9
2018-02-23T16:05:17.155Z,-2.9
2018-02-23T16:06:44.571Z,-2.9
2018-02-23T16:08:07.021Z,-3
2018-02-23T16:09:26.883Z,-3
2018-02-23T16:10:46.775Z,-3
2018-02-23T16:12:16.792Z,-3.1
2018-02-23T16:13:36.617Z,-3.2
2018-02-23T16:14:56.443Z,-3.2
2018-02-23T16:16:16.310Z,-3.3
2018-02-23T16:17:38.701Z,-3.3
2018-02-23T16:18:58.543Z,-3.4
2018-02-23T16:20:18.372Z,-3.4
2018-02-23T16:21:40.786Z,-3.5
2018-02-23T16:23:00.660Z,-3.6
2018-02-23T16:24:28.120Z,-3.6
2018-02-23T16:25:47.942Z,-3.7
2018-02-23T16:27:15.388Z,-3.7
2018-02-23T16:28:42.812Z,-3.7
2018-02-23T16:30:02.653Z,-3.7
2018-02-23T16:31:22.506Z,-3.6
2018-02-23T16:32:42.342Z,-3.7
2018-02-23T16:34:02.192Z,-3.7
2018-02-23T16:35:29.605Z,-3.8
2018-02-23T16:36:49.475Z,-3.8
2018-02-23T16:38:09.342Z,-3.9
2018-02-23T16:39:34.235Z,-4
2018-02-23T16:40:59.130Z,-4
2018-02-23T16:42:24.006Z,-4
2018-02-23T16:43:48.916Z,-4.1
2018-02-23T16:45:08.807Z,-4.1
2018-02-23T16:46:28.688Z,-4.2
2018-02-23T16:47:53.593Z,-4.2
2018-02-23T16:49:13.422Z,-4.3
2018-02-23T16:50:33.245Z,-4.3
2018-02-23T16:51:53.072Z,-4.3
2018-02-23T16:53:12.915Z,-4.4
2018-02-23T16:54:32.835Z,-4.4
2018-02-23T16:55:52.662Z,-4.4
2018-02-23T16:57:20.109Z,-4.5
2018-02-23T16:58:39.951Z,-4.5
2018-02-23T16:59:59.851Z,-4.5
2018-02-23T17:01:19.700Z,-4.6
2018-02-23T17:02:39.530Z,-4.7
2018-02-23T17:03:59.430Z,-4.7
2018-02-23T17:05:24.329Z,-4.8
2018-02-23T17:06:59.343Z,-4.8
2018-02-23T17:08:21.699Z,-4.8
2018-02-23T17:09:41.536Z,-4.8
2018-02-23T17:11:03.908Z,-4.8
2018-02-23T17:12:23.765Z,-4.9
2018-02-23T17:13:51.202Z,-4.9
2018-02-23T17:15:13.614Z,-4.9
2018-02-23T17:16:35.973Z,-5
2018-02-23T17:18:03.382Z,-5
2018-02-23T17:19:23.231Z,-5
2018-02-23T17:20:50.709Z,-5
2018-02-23T17:22:10.590Z,-5.1
2018-02-23T17:23:35.542Z,-5.1
2018-02-23T17:24:55.423Z,-5.1
2018-02-23T17:26:15.287Z,-5.1
2018-02-23T17:27:35.142Z,-5.2
2018-02-23T17:28:55.043Z,-5.2
2018-02-23T17:30:22.572Z,-5.2
2018-02-23T17:31:42.433Z,-5.3
2018-02-23T17:33:12.391Z,-5.3
2018-02-23T17:34:34.819Z,-5.3
2018-02-23T17:36:09.884Z,-5.3
2018-02-23T17:37:29.722Z,-5.3
2018-02-23T17:38:52.100Z,-5.4
2018-02-23T17:40:29.665Z,-5.4
2018-02-23T17:41:52.058Z,-5.5
2018-02-23T17:43:37.196Z,-5.5
2018-02-23T17:44:57.028Z,-5.5
2018-02-23T17:46:21.926Z,-5.5
2018-02-23T17:47:41.783Z,-5.5
2018-02-23T17:49:04.145Z,-5.5
2018-02-23T17:50:29.095Z,-5.5
2018-02-23T17:51:48.971Z,-5.5
2018-02-23T17:53:11.357Z,-5.5
2018-02-23T17:54:38.833Z,-5.6
2018-02-23T17:55:58.716Z,-5.7
2018-02-23T17:57:23.597Z,-5.7
2018-02-23T17:58:43.478Z,-5.8
2018-02-23T18:00:10.948Z,-5.8
2018-02-23T18:01:33.372Z,-5.8
2018-02-23T18:02:53.197Z,-5.9
2018-02-23T18:04:18.113Z,-5.9
2018-02-23T18:05:37.950Z,-5.9
2018-02-23T18:07:05.450Z,-5.9
2018-02-23T18:08:25.354Z,-5.9
2018-02-23T18:09:45.234Z,-6
2018-02-23T18:11:05.141Z,-6
2018-02-23T18:12:25.007Z,-6
2018-02-23T18:13:49.941Z,-6.1
2018-02-23T18:15:09.832Z,-6.3
2018-02-23T18:16:39.814Z,-6.3
2018-02-23T18:17:59.707Z,-6.3
2018-02-23T18:19:19.537Z,-6.3
2018-02-23T18:20:39.418Z,-6.3
2018-02-23T18:21:59.255Z,-6.3
2018-02-23T18:23:19.123Z,-6.4
2018-02-23T18:24:44.005Z,-6.4
2018-02-23T18:26:06.408Z,-6.4
2018-02-23T18:27:26.231Z,-6.4